Time;durP1;ratioP1;P1;durP2;ratioP2;P2;SDS_P1;SDS_P2;PMS_P1;PMS_P2;Temp;Humidity;BMP_temperature;BMP_pressure;BME280_temperature;BME280_humidity;BME280_pressure;Samples;Min_cycle;Max_cycle;Signal;HPM_P1;HPM_P2
2022/12/03 00:02:48;;;;;;;51.70;19.13;;;;;;;0.64;78.03;101239.09;10489801;28;20048;-78
2022/12/03 00:07:51;;;;;;;51.55;20.88;;;;;;;0.51;78.18;101230.59;10460540;28;20060;-77
2022/12/03 00:12:55;;;;;;;56.83;20.38;;;;;;;0.51;77.93;101236.75;10474002;28;20119;-78
2022/12/03 00:17:58;;;;;;;54.75;21.48;;;;;;;0.31;77.50;101233.75;10473926;28;20148;-78
2022/12/03 00:23:01;;;;;;;55.45;21.92;;;;;;;0.47;77.54;101234.25;10395263;28;20132;-78
2022/12/03 00:28:06;;;;;;;60.78;21.52;;;;;;;0.47;77.67;101236.88;10474733;28;20044;-79
2022/12/03 00:33:09;;;;;;;58.03;22.33;;;;;;;0.53;77.48;101234.94;10471107;28;20043;-78
2022/12/03 00:38:12;;;;;;;55.40;20.20;;;;;;;0.33;76.92;101231.91;10487615;28;20036;-79
2022/12/03 00:43:16;;;;;;;55.65;19.85;;;;;;;0.43;76.61;101224.63;10490481;28;20037;-80
2022/12/03 00:48:19;;;;;;;59.28;23.35;;;;;;;0.38;76.24;101228.28;10474516;28;20064;-79
2022/12/03 00:53:21;;;;;;;69.22;22.92;;;;;;;0.23;76.22;101230.44;10458540;28;20102;-79
2022/12/03 00:58:26;;;;;;;59.00;21.77;;;;;;;0.47;76.36;101224.53;10498218;28;20076;-79
2022/12/03 01:03:28;;;;;;;64.93;26.15;;;;;;;0.44;76.19;101215.78;10470139;28;20069;-78
2022/12/03 01:08:31;;;;;;;71.05;24.95;;;;;;;0.31;76.27;101229.31;10482096;28;20048;-79
2022/12/03 01:13:35;;;;;;;69.43;26.33;;;;;;;0.44;76.38;101226.38;10490966;28;20067;-79
2022/12/03 01:18:38;;;;;;;70.50;25.02;;;;;;;0.38;76.78;101232.66;10495109;28;20116;-79
2022/12/03 01:23:41;;;;;;;71.28;24.42;;;;;;;0.41;76.42;101235.22;10452260;28;20412;-79
2022/12/03 01:28:45;;;;;;;75.65;26.02;;;;;;;0.28;76.33;101239.13;10467379;28;20052;-78
2022/12/03 01:33:48;;;;;;;83.25;27.67;;;;;;;0.34;76.56;101237.19;10475900;28;20075;-78
2022/12/03 01:38:51;;;;;;;76.45;26.25;;;;;;;0.34;76.68;101236.31;10494171;28;20048;-78
2022/12/03 01:43:56;;;;;;;72.78;25.10;;;;;;;0.32;76.99;101235.47;10479348;28;20047;-79
2022/12/03 01:48:59;;;;;;;77.88;28.85;;;;;;;0.23;77.14;101236.56;10470078;28;20071;-79
2022/12/03 01:54:04;;;;;;;72.97;26.92;;;;;;;0.37;77.04;101244.16;10478105;28;20094;-78
2022/12/03 01:59:09;;;;;;;82.60;28.02;;;;;;;0.34;77.24;101249.53;10456025;28;20124;-79
2022/12/03 02:04:14;;;;;;;78.60;28.25;;;;;;;0.42;77.91;101249.34;10487760;28;20129;-78
2022/12/03 02:09:17;;;;;;;91.38;28.08;;;;;;;0.41;77.84;101237.88;10495813;28;20067;-78
2022/12/03 02:14:21;;;;;;;85.65;27.58;;;;;;;0.37;78.13;101245.03;10483617;28;20044;-78
2022/12/03 02:19:28;;;;;;;75.78;26.10;;;;;;;0.36;78.28;101245.94;10494100;28;20044;-78
2022/12/03 02:24:39;;;;;;;81.30;26.90;;;;;;;0.43;78.37;101238.72;10496125;28;20041;-78
2022/12/03 02:29:44;;;;;;;62.70;23.65;;;;;;;0.43;78.38;101240.50;10485451;28;20045;-79
2022/12/03 02:34:47;;;;;;;62.45;25.17;;;;;;;0.13;77.97;101238.56;10481820;28;20131;-79
2022/12/03 02:39:54;;;;;;;64.35;24.70;;;;;;;0.23;78.09;101235.72;10471551;28;20076;-79
2022/12/03 02:45:00;;;;;;;59.38;23.65;;;;;;;0.12;77.41;101236.84;10482672;28;20502;-79
2022/12/03 02:50:09;;;;;;;60.53;22.15;;;;;;;0.04;77.13;101233.50;10460327;28;20043;-78
2022/12/03 02:55:14;;;;;;;58.65;22.73;;;;;;;-0.06;76.50;101235.47;10468565;28;20048;-79
2022/12/03 03:00:21;;;;;;;62.15;22.20;;;;;;;-0.20;76.51;101240.22;10486374;28;20074;-78
2022/12/03 03:05:25;;;;;;;62.03;22.67;;;;;;;-0.18;76.56;101235.78;10469883;28;20049;-78
2022/12/03 03:10:29;;;;;;;60.50;23.80;;;;;;;-0.24;76.09;101238.56;10488199;28;20044;-78
2022/12/03 03:15:35;;;;;;;57.45;22.05;;;;;;;-0.23;76.06;101232.38;10454016;28;20072;-78
2022/12/03 03:20:39;;;;;;;68.18;21.60;;;;;;;-0.26;76.11;101234.22;10453006;28;20064;-78
2022/12/03 03:25:44;;;;;;;61.33;22.45;;;;;;;-0.37;75.96;101229.19;10472064;28;20044;-78
2022/12/03 03:30:48;;;;;;;61.00;23.48;;;;;;;-0.26;76.10;101231.59;10472135;28;20127;-78
2022/12/03 03:35:52;;;;;;;57.20;20.98;;;;;;;-0.21;75.62;101235.00;10468897;28;20055;-78
2022/12/03 03:40:56;;;;;;;63.15;22.05;;;;;;;-0.42;75.81;101224.00;10493353;28;20036;-78
2022/12/03 03:46:03;;;;;;;50.38;18.45;;;;;;;-0.60;76.31;101224.41;10485867;28;20066;-77
2022/12/03 03:51:08;;;;;;;61.00;24.70;;;;;;;-0.47;75.87;101223.22;10464768;28;20087;-79
2022/12/03 03:56:11;;;;;;;50.33;20.88;;;;;;;-0.35;75.53;101217.69;10477252;28;20048;-78
2022/12/03 04:01:17;;;;;;;59.83;23.52;;;;;;;-0.36;75.08;101210.66;10508146;28;20509;-76
2022/12/03 04:06:21;;;;;;;60.53;20.85;;;;;;;-0.36;75.36;101213.28;10469789;28;20409;-76
2022/12/03 04:16:44;;;;;;;58.45;20.50;;;;;;;-0.25;75.20;101217.47;10465346;28;20056;-77
2022/12/03 04:37:50;;;;;;;57.73;20.13;;;;;;;-0.39;73.99;101201.94;10459513;28;20082;-76
2022/12/03 04:42:53;;;;;;;52.60;19.80;;;;;;;-0.30;73.01;101202.63;10475404;28;20041;-76
2022/12/03 04:47:57;;;;;;;53.08;19.45;;;;;;;-0.36;72.34;101199.22;10481589;28;20096;-77
2022/12/03 04:53:00;;;;;;;53.78;21.33;;;;;;;-0.37;72.34;101201.00;10475284;28;20075;-76
2022/12/03 04:58:03;;;;;;;56.78;20.20;;;;;;;-0.17;72.25;101200.53;10478429;28;20128;-76
2022/12/03 05:03:07;;;;;;;50.70;19.35;;;;;;;-0.23;72.02;101199.81;10458294;28;20115;-76
2022/12/03 05:08:09;;;;;;;61.60;21.55;;;;;;;-0.22;72.17;101205.09;10479289;28;20432;-77
2022/12/03 05:13:12;;;;;;;48.28;18.10;;;;;;;-0.22;71.83;101196.25;10458234;28;20410;-76
2022/12/03 05:18:17;;;;;;;52.78;19.02;;;;;;;-0.15;71.84;101198.72;10489987;28;20110;-76
2022/12/03 05:23:20;;;;;;;53.85;20.48;;;;;;;-0.13;71.93;101196.06;10465852;28;20127;-77
2022/12/03 05:28:23;;;;;;;57.38;22.60;;;;;;;-0.28;71.68;101195.50;10442450;28;20084;-77
2022/12/03 05:33:27;;;;;;;54.67;19.00;;;;;;;-0.23;71.83;101198.03;10478322;28;20520;-76
2022/12/03 05:38:30;;;;;;;49.13;18.80;;;;;;;-0.20;71.40;101191.81;10466204;28;20144;-76
2022/12/03 05:43:32;;;;;;;50.10;20.10;;;;;;;-0.31;71.49;101186.78;10464008;28;20048;-76
2022/12/03 05:48:36;;;;;;;52.13;19.60;;;;;;;-0.36;71.35;101193.94;10470584;28;20060;-76
2022/12/03 05:53:39;;;;;;;52.00;18.33;;;;;;;-0.34;70.88;101193.00;10492351;28;20044;-76
2022/12/03 05:58:42;;;;;;;57.72;22.83;;;;;;;-0.28;71.29;101194.63;10444537;28;20067;-76
2022/12/03 06:03:46;;;;;;;57.90;20.83;;;;;;;-0.28;71.53;101203.41;10430582;28;20125;-76
2022/12/03 06:08:49;;;;;;;56.00;23.45;;;;;;;-0.26;71.63;101194.63;10478025;28;20099;-76
2022/12/03 06:13:52;;;;;;;67.47;25.70;;;;;;;-0.42;72.17;101192.31;10478894;28;20119;-76
2022/12/03 06:18:56;;;;;;;71.20;26.38;;;;;;;-0.55;72.89;101194.38;10471888;28;20128;-76
2022/12/03 06:24:00;;;;;;;65.85;24.98;;;;;;;-0.59;73.14;101187.41;10497179;28;20040;-77
2022/12/03 06:29:03;;;;;;;69.32;26.63;;;;;;;-0.40;72.71;101193.16;10496311;28;20135;-77
2022/12/03 06:34:07;;;;;;;70.65;25.60;;;;;;;-0.35;72.58;101193.06;10484080;28;20482;-77
2022/12/03 06:39:10;;;;;;;57.38;21.77;;;;;;;-0.37;72.24;101187.81;10477805;28;20163;-75
2022/12/03 06:44:13;;;;;;;59.03;23.05;;;;;;;-0.32;72.36;101183.28;10455234;28;20406;-76
2022/12/03 06:49:17;;;;;;;59.53;25.77;;;;;;;-0.40;72.02;101192.28;10442822;28;20050;-76
2022/12/03 06:54:20;;;;;;;64.53;23.58;;;;;;;-0.40;72.17;101195.78;10496407;28;20064;-76
2022/12/03 06:59:23;;;;;;;65.75;25.23;;;;;;;-0.47;72.23;101194.19;10496285;28;20123;-76
2022/12/03 07:04:27;;;;;;;62.55;26.08;;;;;;;-0.43;72.40;101190.59;10491674;28;20124;-76
2022/12/03 07:09:30;;;;;;;74.72;27.38;;;;;;;-0.35;72.73;101178.09;10469479;28;20101;-75
2022/12/03 07:14:32;;;;;;;69.13;25.65;;;;;;;-0.22;72.64;101178.69;10437963;28;20619;-77
2022/12/03 07:19:37;;;;;;;61.22;22.55;;;;;;;-0.39;73.20;101170.25;10453969;28;20103;-77
2022/12/03 07:24:39;;;;;;;57.97;21.88;;;;;;;-0.32;73.13;101175.38;10460728;28;20080;-77
2022/12/03 07:29:42;;;;;;;61.17;24.05;;;;;;;-0.34;73.24;101174.53;10487931;28;20084;-77
2022/12/03 07:34:46;;;;;;;102.13;30.77;;;;;;;0.03;74.69;101168.38;10474740;28;20075;-78
2022/12/03 07:39:51;;;;;;;48.42;18.45;;;;;;;0.38;73.52;101175.41;10474592;28;20044;-76
2022/12/03 07:44:54;;;;;;;47.83;18.95;;;;;;;0.42;72.36;101172.69;10455056;28;20045;-77
2022/12/03 07:49:58;;;;;;;50.15;20.67;;;;;;;0.35;72.21;101172.81;10464726;28;20037;-76
2022/12/03 07:55:01;;;;;;;51.08;19.60;;;;;;;0.29;71.62;101175.63;10494243;28;20064;-77
2022/12/03 08:00:05;;;;;;;57.38;21.45;;;;;;;-0.04;72.09;101172.06;10460444;28;20463;-77
2022/12/03 08:05:11;;;;;;;48.88;20.25;;;;;;;0.06;72.36;101165.66;10463616;28;20116;-76
2022/12/03 08:10:14;;;;;;;49.00;20.85;;;;;;;-0.20;72.70;101170.69;10489442;28;20053;-76
2022/12/03 08:15:20;;;;;;;49.05;18.75;;;;;;;-0.31;73.23;101163.03;10493655;28;20547;-77
2022/12/03 08:20:26;;;;;;;57.53;23.13;;;;;;;-0.43;73.68;101165.97;10499408;28;20522;-76
2022/12/03 08:25:32;;;;;;;49.92;19.45;;;;;;;-0.48;73.49;101173.97;10500086;28;20045;-79
2022/12/03 08:30:34;;;;;;;65.50;23.02;;;;;;;-0.30;73.29;101170.06;10453364;28;20087;-76
2022/12/03 08:35:41;;;;;;;56.60;20.05;;;;;;;-0.23;72.87;101166.34;10442361;28;20630;-76
2022/12/03 08:40:47;;;;;;;51.75;19.88;;;;;;;-0.13;72.77;101161.72;10404939;28;20781;-77
2022/12/03 08:45:52;;;;;;;53.17;21.60;;;;;;;-0.08;72.05;101168.63;10393413;28;20064;-76
2022/12/03 08:50:58;;;;;;;49.13;18.85;;;;;;;-0.06;71.93;101169.44;10453574;28;20079;-75
2022/12/03 08:56:03;;;;;;;61.58;22.52;;;;;;;-0.06;71.40;101171.22;10429731;28;20056;-76
2022/12/03 09:01:30;;;;;;;52.15;19.70;;;;;;;-0.24;71.52;101163.78;10406612;28;20044;-76
2022/12/03 09:06:35;;;;;;;55.78;23.23;;;;;;;-0.20;71.73;101165.41;10387345;28;20088;-76
2022/12/03 09:11:38;;;;;;;58.15;21.40;;;;;;;-0.03;71.50;101155.28;10394607;28;20075;-76
2022/12/03 09:16:41;;;;;;;59.03;22.38;;;;;;;-0.08;71.60;101163.34;10420659;28;20119;-76
2022/12/03 09:21:45;;;;;;;61.13;23.20;;;;;;;-0.19;71.64;101160.09;10431930;28;20170;-75
2022/12/03 09:26:48;;;;;;;70.25;25.48;;;;;;;-0.07;71.04;101154.50;10420877;28;20434;-75
2022/12/03 09:31:51;;;;;;;65.32;24.00;;;;;;;0.03;71.10;101151.63;10438950;28;20379;-76
2022/12/03 09:36:55;;;;;;;64.50;23.20;;;;;;;0.25;70.53;101147.56;10421586;28;20746;-75
2022/12/03 09:41:58;;;;;;;60.05;23.70;;;;;;;0.33;70.08;101152.63;10446801;28;20534;-75
2022/12/03 09:47:02;;;;;;;61.95;23.17;;;;;;;0.15;69.96;101148.69;10414244;28;20764;-76
2022/12/03 09:52:08;;;;;;;62.40;24.85;;;;;;;0.20;69.99;101151.22;10452112;28;20044;-76
2022/12/03 09:57:12;;;;;;;67.20;25.05;;;;;;;0.29;69.98;101149.19;10427340;28;20722;-76
2022/12/03 10:02:21;;;;;;;64.88;23.75;;;;;;;0.23;69.82;101145.88;10459254;28;20053;-76
2022/12/03 10:07:26;;;;;;;61.72;24.50;;;;;;;0.07;69.88;101140.09;10454702;28;20084;-76
2022/12/03 10:12:29;;;;;;;67.45;23.40;;;;;;;0.36;69.34;101131.44;10417803;28;20608;-75
2022/12/03 10:17:32;;;;;;;62.58;24.33;;;;;;;0.27;68.78;101124.59;10454345;28;20498;-76
2022/12/03 10:22:36;;;;;;;57.00;24.63;;;;;;;0.65;68.39;101111.25;10445713;28;20052;-75
2022/12/03 10:27:40;;;;;;;49.13;20.65;;;;;;;0.73;67.62;101115.38;10422140;28;20044;-76
2022/12/03 10:32:45;;;;;;;51.30;21.52;;;;;;;1.03;67.24;101104.84;10459572;28;20052;-76
2022/12/03 10:38:02;;;;;;;47.67;19.50;;;;;;;0.92;66.15;101102.50;10459268;28;20052;-77
2022/12/03 10:43:24;;;;;;;51.10;20.92;;;;;;;1.04;65.38;101093.31;10339290;28;20414;-75
2022/12/03 10:48:27;;;;;;;50.78;20.33;;;;;;;1.20;65.40;101099.03;10390085;28;20048;-76
2022/12/03 10:53:35;;;;;;;47.30;19.60;;;;;;;1.12;65.19;101088.66;10437418;28;20048;-76
2022/12/03 10:58:39;;;;;;;47.80;20.67;;;;;;;1.14;65.35;101092.13;10451959;28;20132;-76
2022/12/03 11:03:42;;;;;;;49.83;21.60;;;;;;;0.96;64.90;101088.28;10437879;28;20048;-75
2022/12/03 11:08:48;;;;;;;54.13;20.63;;;;;;;0.97;65.26;101065.34;10448429;28;20095;-75
2022/12/03 11:14:00;;;;;;;49.55;21.05;;;;;;;0.87;65.87;101069.16;10416755;28;20099;-75
2022/12/03 11:19:03;;;;;;;52.58;22.08;;;;;;;0.74;66.00;101060.72;10456850;28;20074;-74
2022/12/03 11:24:19;;;;;;;47.47;19.88;;;;;;;0.79;66.11;101062.31;10437658;28;20048;-75
2022/12/03 11:29:47;;;;;;;51.88;20.50;;;;;;;0.77;65.97;101058.00;10427526;28;20052;-75
2022/12/03 11:34:50;;;;;;;51.45;21.70;;;;;;;0.78;66.75;101055.28;10414478;28;20095;-76
2022/12/03 11:40:32;;;;;;;51.78;20.55;;;;;;;0.77;66.20;101055.38;10414259;28;20648;-75
2022/12/03 11:45:41;;;;;;;53.40;22.15;;;;;;;0.74;66.28;101043.09;10363921;28;20041;-75
2022/12/03 11:50:49;;;;;;;46.70;20.63;;;;;;;0.68;66.10;101037.97;10371881;28;21980;-77
2022/12/03 11:56:07;;;;;;;52.13;21.10;;;;;;;0.78;65.91;101028.84;10409065;28;20059;-78
2022/12/03 12:01:11;;;;;;;53.97;23.35;;;;;;;0.89;65.72;101027.66;10372674;28;20172;-77
2022/12/03 12:06:15;;;;;;;50.33;20.48;;;;;;;0.78;65.38;101023.56;10405022;28;20045;-77
2022/12/03 12:11:25;;;;;;;54.78;21.70;;;;;;;0.68;65.76;101018.59;10404900;28;20040;-76
2022/12/03 12:16:44;;;;;;;54.25;21.05;;;;;;;0.72;66.21;101013.16;10391122;28;20042;-77
2022/12/03 12:21:48;;;;;;;53.22;21.27;;;;;;;0.59;66.43;101002.09;10371377;28;20131;-76
2022/12/03 12:26:53;;;;;;;59.70;24.35;;;;;;;0.71;66.28;101008.78;10373481;28;20041;-76
2022/12/03 12:32:03;;;;;;;65.53;23.55;;;;;;;0.71;66.31;101002.63;10384536;28;20075;-76
2022/12/03 12:37:11;;;;;;;62.78;24.20;;;;;;;0.55;66.50;100996.91;10407896;28;20048;-76
2022/12/03 12:42:32;;;;;;;68.00;26.05;;;;;;;0.37;67.14;101001.00;10424639;28;20061;-76
2022/12/03 12:47:36;;;;;;;63.42;25.00;;;;;;;0.33;67.13;100997.56;10418407;28;20068;-76
2022/12/03 12:52:51;;;;;;;68.97;26.05;;;;;;;0.16;68.04;100998.06;10387670;28;20079;-75
2022/12/03 12:57:59;;;;;;;65.13;25.23;;;;;;;0.22;68.07;101001.41;10359966;28;20053;-77
2022/12/03 13:03:04;;;;;;;60.20;25.45;;;;;;;0.27;67.90;100999.50;10429550;28;20055;-77
2022/12/03 13:08:20;;;;;;;70.38;28.77;;;;;;;0.32;67.70;100990.53;10464758;28;20056;-76
2022/12/03 13:13:30;;;;;;;71.65;26.85;;;;;;;0.30;67.65;100984.44;10442402;28;20132;-76
2022/12/03 13:18:38;;;;;;;71.68;27.83;;;;;;;0.37;67.83;100985.13;10428402;28;20410;-76
2022/12/03 13:23:41;;;;;;;76.00;28.42;;;;;;;0.38;68.01;100977.16;10422636;28;20052;-76
2022/12/03 13:28:45;;;;;;;73.78;28.30;;;;;;;0.37;68.47;100966.63;10410365;28;20400;-77
2022/12/03 13:33:48;;;;;;;77.05;27.55;;;;;;;0.42;68.42;100971.78;10427748;28;20421;-76
2022/12/03 13:38:53;;;;;;;78.93;28.48;;;;;;;0.41;68.49;100965.59;10421472;28;20056;-77
2022/12/03 13:43:57;;;;;;;78.75;28.15;;;;;;;0.38;68.60;100965.69;10416863;28;20064;-77
2022/12/03 13:49:00;;;;;;;75.35;28.42;;;;;;;0.26;68.64;100959.00;10412022;28;20407;-77
2022/12/03 13:54:09;;;;;;;79.32;30.35;;;;;;;0.11;69.24;100965.63;10438223;28;20670;-76
2022/12/03 13:59:19;;;;;;;76.97;29.67;;;;;;;0.28;69.07;100956.34;10396374;28;20053;-77
2022/12/03 14:04:27;;;;;;;82.22;29.17;;;;;;;0.37;69.05;100951.63;10398080;28;20060;-76
2022/12/03 14:09:30;;;;;;;73.60;29.63;;;;;;;0.39;68.49;100955.09;10438756;28;20533;-76
2022/12/03 14:14:35;;;;;;;82.22;29.42;;;;;;;0.36;68.72;100951.69;10442409;28;20048;-77
2022/12/03 14:19:38;;;;;;;79.05;29.48;;;;;;;0.37;68.54;100942.84;10428466;28;20051;-76
2022/12/03 14:24:40;;;;;;;75.50;29.05;;;;;;;0.25;68.81;100944.06;10404158;28;20045;-77
2022/12/03 14:29:45;;;;;;;75.80;30.45;;;;;;;0.25;68.96;100937.91;10457496;28;20108;-76
2022/12/03 14:34:47;;;;;;;80.22;31.50;;;;;;;0.22;68.67;100938.88;10420639;28;20055;-76
2022/12/03 14:39:50;;;;;;;78.93;32.53;;;;;;;0.15;68.96;100939.97;10453803;28;20053;-78
2022/12/03 14:44:55;;;;;;;77.18;27.27;;;;;;;0.11;69.07;100946.22;10432259;28;20157;-80
2022/12/03 14:49:58;;;;;;;75.15;27.85;;;;;;;0.13;69.32;100947.91;10432711;28;20559;-79
2022/12/03 14:55:01;;;;;;;72.90;29.63;;;;;;;0.08;69.08;100955.13;10394325;28;20053;-78
2022/12/03 15:00:06;;;;;;;82.35;30.75;;;;;;;0.05;69.58;100949.06;10396202;28;20274;-77
2022/12/03 15:05:09;;;;;;;81.32;30.83;;;;;;;0.11;69.37;100938.31;10453095;28;20431;-77
2022/12/03 15:10:12;;;;;;;78.10;32.25;;;;;;;0.03;69.15;100940.28;10437448;28;20052;-77
2022/12/03 15:15:16;;;;;;;80.20;30.58;;;;;;;-0.06;69.18;100952.84;10437422;28;20045;-77
2022/12/03 15:20:19;;;;;;;83.03;30.73;;;;;;;-0.07;69.26;100951.13;10455780;28;20059;-78
2022/12/03 15:25:24;;;;;;;77.88;27.63;;;;;;;-0.19;69.79;100945.31;10455348;28;20048;-77
2022/12/03 15:30:29;;;;;;;78.40;29.95;;;;;;;-0.08;69.77;100945.91;10446497;28;20045;-78
2022/12/03 15:35:32;;;;;;;81.53;29.92;;;;;;;-0.17;69.64;100944.38;10414403;28;20498;-77
2022/12/03 15:40:36;;;;;;;77.72;31.67;;;;;;;-0.09;69.46;100939.75;10412632;28;20615;-77
2022/12/03 15:45:41;;;;;;;76.30;30.00;;;;;;;-0.02;69.59;100945.72;10412825;28;20057;-76
2022/12/03 15:50:44;;;;;;;74.18;28.58;;;;;;;-0.10;69.04;100932.72;10419583;28;20052;-78
2022/12/03 15:55:46;;;;;;;87.00;32.08;;;;;;;-0.06;69.08;100936.16;10399611;28;20053;-76
2022/12/03 16:00:51;;;;;;;72.82;29.20;;;;;;;-0.15;69.62;100939.06;10414090;28;20494;-76
2022/12/03 16:05:53;;;;;;;73.82;29.42;;;;;;;-0.09;69.43;100934.44;10453331;28;20045;-77
2022/12/03 16:10:56;;;;;;;76.00;30.95;;;;;;;-0.09;69.27;100939.75;10420913;28;20059;-77
2022/12/03 16:16:00;;;;;;;87.65;35.08;;;;;;;-0.07;69.29;100931.78;10462326;28;20041;-77
2022/12/03 16:21:03;;;;;;;83.95;32.53;;;;;;;-0.17;69.50;100936.44;10438179;28;20041;-77
2022/12/03 16:26:06;;;;;;;81.78;32.83;;;;;;;-0.25;69.60;100932.28;10379817;28;20058;-77
2022/12/03 16:31:10;;;;;;;79.53;31.65;;;;;;;-0.30;70.24;100921.88;10424126;28;20122;-78
2022/12/03 16:36:13;;;;;;;79.07;31.52;;;;;;;-0.14;70.00;100925.81;10445649;28;20072;-78
2022/12/03 16:41:16;;;;;;;80.57;33.20;;;;;;;-0.22;70.03;100921.63;10455203;28;20048;-78
2022/12/03 16:46:24;;;;;;;87.63;34.15;;;;;;;-0.19;69.76;100908.34;10498812;28;20583;-78
2022/12/03 16:51:29;;;;;;;81.55;32.38;;;;;;;-0.23;69.80;100920.78;10492928;28;20041;-78
2022/12/03 16:56:32;;;;;;;86.30;33.60;;;;;;;-0.24;69.91;100918.19;10426510;28;20525;-77
2022/12/03 17:01:36;;;;;;;83.32;32.40;;;;;;;-0.26;70.13;100917.38;10409132;28;20505;-79
2022/12/03 17:06:39;;;;;;;89.88;35.13;;;;;;;-0.22;69.69;100921.63;10459851;28;21597;-78
2022/12/03 17:11:41;;;;;;;86.65;35.78;;;;;;;-0.43;70.54;100923.97;10459374;28;20044;-78
2022/12/03 17:16:46;;;;;;;91.47;35.38;;;;;;;-0.25;70.10;100919.94;10460141;28;20194;-79
2022/12/03 17:21:48;;;;;;;90.30;36.72;;;;;;;-0.16;69.95;100918.84;10450256;28;20202;-78
2022/12/03 17:26:51;;;;;;;93.10;37.00;;;;;;;-0.24;70.34;100913.78;10457670;28;21890;-78
2022/12/03 17:31:56;;;;;;;93.30;37.45;;;;;;;-0.22;70.44;100917.25;10456821;28;20051;-79
2022/12/03 17:36:58;;;;;;;96.50;38.50;;;;;;;-0.11;70.15;100917.81;10442058;28;20441;-77
2022/12/03 17:42:01;;;;;;;98.30;37.20;;;;;;;-0.11;70.45;100912.53;10424381;28;20447;-77
2022/12/03 17:47:06;;;;;;;99.03;38.53;;;;;;;-0.10;70.35;100916.03;10432296;28;20052;-77
2022/12/03 17:52:09;;;;;;;95.82;40.53;;;;;;;-0.15;70.60;100905.59;10377157;28;20399;-79
2022/12/03 17:57:11;;;;;;;92.82;36.13;;;;;;;-0.11;70.50;100909.88;10426992;28;20049;-79
2022/12/03 18:02:16;;;;;;;86.25;34.22;;;;;;;-0.14;70.28;100904.69;10435462;28;20044;-77
2022/12/03 18:07:19;;;;;;;100.18;39.42;;;;;;;-0.19;70.40;100913.63;10435659;28;20768;-77
2022/12/03 18:12:21;;;;;;;96.72;39.55;;;;;;;-0.10;70.43;100906.31;10438460;28;20515;-78
2022/12/03 18:17:26;;;;;;;95.90;38.45;;;;;;;-0.05;70.72;100914.13;10429496;28;20420;-77
2022/12/03 18:22:29;;;;;;;105.82;38.45;;;;;;;-0.08;70.40;100901.00;10420112;28;20064;-77
2022/12/03 18:27:31;;;;;;;96.07;39.30;;;;;;;-0.10;70.19;100897.53;10420650;28;20072;-77
2022/12/03 18:32:36;;;;;;;96.82;38.22;;;;;;;-0.16;70.14;100895.09;10445601;28;20043;-76
2022/12/03 18:37:39;;;;;;;101.93;38.40;;;;;;;-0.17;70.43;100896.84;10439726;28;20064;-77
2022/12/03 18:42:42;;;;;;;108.13;39.75;;;;;;;-0.12;70.18;100900.22;10420373;28;20068;-77
2022/12/03 18:47:46;;;;;;;98.65;37.83;;;;;;;-0.29;70.56;100898.03;10428391;28;20047;-77
2022/12/03 18:52:49;;;;;;;106.45;39.38;;;;;;;-0.28;70.78;100896.28;10457519;28;20505;-77
2022/12/03 18:57:52;;;;;;;98.63;39.58;;;;;;;-0.21;70.52;100887.28;10447638;28;20067;-77
2022/12/03 19:02:56;;;;;;;94.43;36.38;;;;;;;-0.14;70.43;100883.56;10440134;28;20129;-77
2022/12/03 19:08:13;;;;;;;106.15;41.33;;;;;;;-0.09;70.71;100878.13;10432880;28;20048;-77
2022/12/03 19:13:16;;;;;;;102.55;37.45;;;;;;;-0.17;70.22;100875.69;10420248;28;20048;-76
2022/12/03 19:18:20;;;;;;;90.40;37.05;;;;;;;-0.13;70.38;100868.59;10447525;28;20048;-79
2022/12/03 19:23:23;;;;;;;96.45;40.00;;;;;;;-0.09;70.49;100883.41;10370189;28;20103;-77
2022/12/03 19:28:26;;;;;;;100.13;41.10;;;;;;;-0.16;70.13;100885.38;10377164;28;20395;-77
2022/12/03 19:33:31;;;;;;;90.88;38.47;;;;;;;-0.15;70.06;100878.31;10407089;28;20044;-77
2022/12/03 19:38:34;;;;;;;90.10;34.72;;;;;;;-0.21;70.33;100887.28;10422237;28;20123;-78
2022/12/03 19:43:38;;;;;;;98.05;38.72;;;;;;;-0.09;70.22;100878.13;10373569;28;20633;-78
2022/12/03 19:48:42;;;;;;;95.35;36.28;;;;;;;-0.12;70.25;100881.72;10432665;28;20080;-77
2022/12/03 19:53:45;;;;;;;91.80;39.33;;;;;;;-0.10;70.55;100882.56;10434901;28;20551;-77
2022/12/03 19:58:48;;;;;;;97.72;38.80;;;;;;;-0.11;70.59;100887.88;10416795;28;20572;-78
2022/12/03 20:03:55;;;;;;;103.13;38.15;;;;;;;-0.09;70.47;100880.78;10409156;28;20055;-77
2022/12/03 20:09:00;;;;;;;98.85;38.72;;;;;;;-0.08;70.32;100879.88;10352237;28;20191;-78
2022/12/03 20:14:05;;;;;;;102.63;38.35;;;;;;;-0.08;70.45;100885.16;10370126;28;20049;-78
2022/12/03 20:19:12;;;;;;;94.63;40.95;;;;;;;-0.14;70.62;100877.38;10453426;28;20052;-78
2022/12/03 20:24:18;;;;;;;87.93;36.80;;;;;;;-0.11;70.70;100877.28;10389235;28;20063;-77
2022/12/03 20:29:20;;;;;;;92.60;36.92;;;;;;;-0.15;70.32;100873.88;10428100;28;20045;-77
2022/12/03 20:34:25;;;;;;;92.35;37.25;;;;;;;-0.22;70.67;100882.03;10453430;28;20410;-77
2022/12/03 20:39:27;;;;;;;100.75;37.50;;;;;;;-0.19;70.52;100879.28;10429883;28;20053;-76
2022/12/03 20:44:30;;;;;;;84.03;34.88;;;;;;;-0.19;70.72;100885.47;10414962;28;20057;-77
2022/12/03 20:49:35;;;;;;;90.25;37.92;;;;;;;-0.17;70.48;100880.13;10361468;28;20069;-76
2022/12/03 20:54:38;;;;;;;99.13;38.50;;;;;;;-0.15;70.88;100871.25;10369768;28;20049;-76
2022/12/03 20:59:40;;;;;;;92.38;37.55;;;;;;;-0.18;70.77;100876.63;10416676;28;20048;-76
2022/12/03 21:04:44;;;;;;;91.40;37.08;;;;;;;-0.24;70.63;100868.03;10443109;28;20048;-77
2022/12/03 21:09:47;;;;;;;93.22;36.40;;;;;;;-0.17;70.90;100873.06;10385043;28;20672;-78
2022/12/03 21:14:50;;;;;;;95.15;36.40;;;;;;;-0.15;70.83;100870.41;10414038;28;20052;-77
2022/12/03 21:19:54;;;;;;;99.55;37.35;;;;;;;-0.19;70.86;100876.66;10428702;28;20136;-76
2022/12/03 21:24:57;;;;;;;95.60;39.00;;;;;;;-0.30;71.24;100863.78;10423320;28;20172;-76
2022/12/03 21:30:00;;;;;;;90.00;36.35;;;;;;;-0.19;71.25;100861.69;10444790;28;20635;-78
2022/12/03 21:35:05;;;;;;;89.15;36.00;;;;;;;-0.20;71.42;100857.31;10419027;28;20187;-77
2022/12/03 21:40:08;;;;;;;88.85;37.58;;;;;;;-0.23;71.94;100859.19;10400575;28;20045;-77
2022/12/03 21:45:11;;;;;;;89.22;33.83;;;;;;;-0.20;71.60;100862.59;10366815;28;20048;-77
2022/12/03 21:50:15;;;;;;;87.90;35.50;;;;;;;-0.32;72.37;100868.22;10444037;28;20728;-78
2022/12/03 21:55:18;;;;;;;84.85;34.70;;;;;;;-0.30;72.45;100864.66;10420134;28;20052;-77
2022/12/03 22:00:21;;;;;;;86.80;32.97;;;;;;;-0.34;72.55;100862.13;10427683;28;20073;-75
2022/12/03 22:05:26;;;;;;;84.10;33.47;;;;;;;-0.35;72.29;100869.19;10403660;28;20060;-77
2022/12/03 22:10:28;;;;;;;84.97;36.42;;;;;;;-0.22;72.26;100864.44;10421541;28;20045;-77
2022/12/03 22:15:31;;;;;;;85.88;36.10;;;;;;;-0.22;72.33;100864.44;10420954;28;20413;-76
2022/12/03 22:20:35;;;;;;;83.57;33.47;;;;;;;-0.15;72.20;100860.69;10427827;28;20051;-77
2022/12/03 22:25:38;;;;;;;79.95;33.95;;;;;;;-0.13;72.23;100856.22;10416124;28;20082;-77
2022/12/03 22:30:41;;;;;;;84.88;33.17;;;;;;;-0.13;72.14;100858.00;10413539;28;20044;-77
2022/12/03 22:35:54;;;;;;;75.70;32.92;;;;;;;-0.10;72.10;100857.91;10437484;28;20493;-77
2022/12/03 22:40:57;;;;;;;78.43;31.25;;;;;;;-0.12;72.05;100850.03;10380975;28;20985;-77
2022/12/03 22:46:00;;;;;;;78.38;33.38;;;;;;;-0.08;71.66;100846.41;10384778;28;20091;-77
2022/12/03 22:51:09;;;;;;;77.50;31.30;;;;;;;-0.02;71.50;100845.34;10417640;28;20055;-76
2022/12/03 22:56:12;;;;;;;83.47;32.17;;;;;;;-0.03;71.77;100834.81;10416456;28;20049;-77
2022/12/03 23:01:22;;;;;;;77.18;31.83;;;;;;;0.00;71.75;100838.25;10427499;28;20051;-77
2022/12/03 23:06:27;;;;;;;88.32;36.40;;;;;;;-0.06;71.67;100836.63;10453713;28;20068;-77
2022/12/03 23:11:31;;;;;;;80.45;33.67;;;;;;;-0.15;71.66;100828.13;10443781;28;20135;-78
2022/12/03 23:16:34;;;;;;;79.75;32.28;;;;;;;-0.07;71.49;100828.78;10453100;28;20407;-77